sensor_id;sensor_type;location;lat;lon;timestamp;P1;durP1;ratioP1;P2;durP2;ratioP2
30617;SDS011;17384;51.214;9.202;2023-04-25T00:01:33;4.63;;;4.00;;
30617;SDS011;17384;51.214;9.202;2023-04-25T00:04:02;4.82;;;4.32;;
30617;SDS011;17384;51.214;9.202;2023-04-25T00:06:30;5.05;;;4.15;;
30617;SDS011;17384;51.214;9.202;2023-04-25T00:08:57;5.60;;;4.43;;
30617;SDS011;17384;51.214;9.202;2023-04-25T00:11:23;5.03;;;4.22;;
30617;SDS011;17384;51.214;9.202;2023-04-25T00:13:49;7.35;;;4.70;;
30617;SDS011;17384;51.214;9.202;2023-04-25T00:16:15;5.55;;;4.35;;
30617;SDS011;17384;51.214;9.202;2023-04-25T00:18:41;5.90;;;4.57;;
30617;SDS011;17384;51.214;9.202;2023-04-25T00:21:07;4.75;;;3.88;;
30617;SDS011;17384;51.214;9.202;2023-04-25T00:23:32;5.72;;;4.47;;
30617;SDS011;17384;51.214;9.202;2023-04-25T00:26:00;6.18;;;4.53;;
30617;SDS011;17384;51.214;9.202;2023-04-25T00:28:26;8.93;;;4.55;;
30617;SDS011;17384;51.214;9.202;2023-04-25T00:30:51;5.30;;;4.10;;
30617;SDS011;17384;51.214;9.202;2023-04-25T00:33:16;8.15;;;4.32;;
30617;SDS011;17384;51.214;9.202;2023-04-25T00:35:42;8.57;;;4.55;;
30617;SDS011;17384;51.214;9.202;2023-04-25T00:38:07;4.65;;;4.20;;
30617;SDS011;17384;51.214;9.202;2023-04-25T00:40:33;5.75;;;4.28;;
30617;SDS011;17384;51.214;9.202;2023-04-25T00:42:58;6.38;;;4.40;;
30617;SDS011;17384;51.214;9.202;2023-04-25T00:45:27;6.40;;;4.80;;
30617;SDS011;17384;51.214;9.202;2023-04-25T00:47:54;6.43;;;3.80;;
30617;SDS011;17384;51.214;9.202;2023-04-25T00:50:20;5.68;;;3.72;;
30617;SDS011;17384;51.214;9.202;2023-04-25T00:52:46;5.93;;;4.47;;
30617;SDS011;17384;51.214;9.202;2023-04-25T00:55:11;6.30;;;4.20;;
30617;SDS011;17384;51.214;9.202;2023-04-25T00:57:38;8.57;;;4.65;;
30617;SDS011;17384;51.214;9.202;2023-04-25T01:00:04;8.10;;;4.30;;
30617;SDS011;17384;51.214;9.202;2023-04-25T01:02:34;4.45;;;4.00;;
30617;SDS011;17384;51.214;9.202;2023-04-25T01:05:00;5.55;;;4.22;;
30617;SDS011;17384;51.214;9.202;2023-04-25T01:07:26;16.30;;;4.65;;
30617;SDS011;17384;51.214;9.202;2023-04-25T01:09:52;8.73;;;4.30;;
30617;SDS011;17384;51.214;9.202;2023-04-25T01:12:17;4.82;;;4.05;;
30617;SDS011;17384;51.214;9.202;2023-04-25T01:14:43;7.40;;;4.00;;
30617;SDS011;17384;51.214;9.202;2023-04-25T01:17:09;5.47;;;4.28;;
30617;SDS011;17384;51.214;9.202;2023-04-25T01:19:35;6.07;;;4.60;;
30617;SDS011;17384;51.214;9.202;2023-04-25T01:22:00;4.82;;;4.13;;
30617;SDS011;17384;51.214;9.202;2023-04-25T01:24:26;8.60;;;4.28;;
30617;SDS011;17384;51.214;9.202;2023-04-25T01:26:52;9.02;;;4.50;;
30617;SDS011;17384;51.214;9.202;2023-04-25T01:29:21;5.82;;;4.60;;
30617;SDS011;17384;51.214;9.202;2023-04-25T01:31:48;5.60;;;4.20;;
30617;SDS011;17384;51.214;9.202;2023-04-25T01:34:14;7.15;;;4.85;;
30617;SDS011;17384;51.214;9.202;2023-04-25T01:36:39;9.73;;;4.95;;
30617;SDS011;17384;51.214;9.202;2023-04-25T01:39:05;5.00;;;4.05;;
30617;SDS011;17384;51.214;9.202;2023-04-25T01:41:32;5.75;;;4.03;;
30617;SDS011;17384;51.214;9.202;2023-04-25T01:43:59;8.00;;;4.35;;
30617;SDS011;17384;51.214;9.202;2023-04-25T01:46:26;5.90;;;4.40;;
30617;SDS011;17384;51.214;9.202;2023-04-25T01:48:52;6.80;;;4.88;;
30617;SDS011;17384;51.214;9.202;2023-04-25T01:51:18;6.82;;;4.65;;
30617;SDS011;17384;51.214;9.202;2023-04-25T01:53:44;6.10;;;4.22;;
30617;SDS011;17384;51.214;9.202;2023-04-25T01:56:10;10.13;;;4.97;;
30617;SDS011;17384;51.214;9.202;2023-04-25T01:58:35;9.77;;;4.78;;
30617;SDS011;17384;51.214;9.202;2023-04-25T02:01:00;6.22;;;4.43;;
30617;SDS011;17384;51.214;9.202;2023-04-25T02:03:26;5.47;;;4.53;;
30617;SDS011;17384;51.214;9.202;2023-04-25T02:05:51;10.60;;;4.53;;
30617;SDS011;17384;51.214;9.202;2023-04-25T02:08:17;9.35;;;4.60;;
30617;SDS011;17384;51.214;9.202;2023-04-25T02:10:43;5.43;;;4.22;;
30617;SDS011;17384;51.214;9.202;2023-04-25T02:13:09;6.53;;;4.70;;
30617;SDS011;17384;51.214;9.202;2023-04-25T02:15:34;9.02;;;4.43;;
30617;SDS011;17384;51.214;9.202;2023-04-25T02:18:00;8.98;;;4.72;;
30617;SDS011;17384;51.214;9.202;2023-04-25T02:20:26;5.88;;;4.15;;
30617;SDS011;17384;51.214;9.202;2023-04-25T02:22:53;6.20;;;4.75;;
30617;SDS011;17384;51.214;9.202;2023-04-25T02:25:19;11.52;;;5.13;;
30617;SDS011;17384;51.214;9.202;2023-04-25T02:27:45;6.43;;;5.00;;
30617;SDS011;17384;51.214;9.202;2023-04-25T02:30:11;6.30;;;4.57;;
30617;SDS011;17384;51.214;9.202;2023-04-25T02:32:38;7.07;;;5.55;;
30617;SDS011;17384;51.214;9.202;2023-04-25T02:35:04;10.90;;;5.43;;
30617;SDS011;17384;51.214;9.202;2023-04-25T02:37:30;7.55;;;5.38;;
30617;SDS011;17384;51.214;9.202;2023-04-25T02:39:56;9.30;;;5.70;;
30617;SDS011;17384;51.214;9.202;2023-04-25T02:42:22;7.82;;;5.22;;
30617;SDS011;17384;51.214;9.202;2023-04-25T02:44:47;8.13;;;5.70;;
30617;SDS011;17384;51.214;9.202;2023-04-25T02:47:13;10.90;;;5.50;;
30617;SDS011;17384;51.214;9.202;2023-04-25T02:49:39;6.53;;;5.13;;
30617;SDS011;17384;51.214;9.202;2023-04-25T02:52:05;9.43;;;5.32;;
30617;SDS011;17384;51.214;9.202;2023-04-25T02:54:31;10.27;;;5.82;;
30617;SDS011;17384;51.214;9.202;2023-04-25T02:56:56;6.45;;;5.15;;
30617;SDS011;17384;51.214;9.202;2023-04-25T02:59:22;5.78;;;4.57;;
30617;SDS011;17384;51.214;9.202;2023-04-25T03:01:47;7.25;;;5.70;;
30617;SDS011;17384;51.214;9.202;2023-04-25T03:04:13;9.43;;;5.50;;
30617;SDS011;17384;51.214;9.202;2023-04-25T03:06:38;10.60;;;5.47;;
30617;SDS011;17384;51.214;9.202;2023-04-25T03:09:04;9.05;;;5.60;;
30617;SDS011;17384;51.214;9.202;2023-04-25T03:11:29;7.55;;;5.97;;
30617;SDS011;17384;51.214;9.202;2023-04-25T03:13:55;10.80;;;5.43;;
30617;SDS011;17384;51.214;9.202;2023-04-25T03:16:21;7.72;;;5.45;;
30617;SDS011;17384;51.214;9.202;2023-04-25T03:18:47;8.30;;;5.60;;
30617;SDS011;17384;51.214;9.202;2023-04-25T03:21:12;7.53;;;5.68;;
30617;SDS011;17384;51.214;9.202;2023-04-25T03:23:38;9.45;;;6.15;;
30617;SDS011;17384;51.214;9.202;2023-04-25T03:26:03;11.45;;;6.32;;
30617;SDS011;17384;51.214;9.202;2023-04-25T03:28:29;12.70;;;7.28;;
30617;SDS011;17384;51.214;9.202;2023-04-25T03:30:54;9.85;;;6.82;;
30617;SDS011;17384;51.214;9.202;2023-04-25T03:33:20;13.57;;;7.75;;
30617;SDS011;17384;51.214;9.202;2023-04-25T03:35:46;14.13;;;7.38;;
30617;SDS011;17384;51.214;9.202;2023-04-25T03:38:12;12.35;;;6.65;;
30617;SDS011;17384;51.214;9.202;2023-04-25T03:40:37;12.63;;;7.28;;
30617;SDS011;17384;51.214;9.202;2023-04-25T03:43:03;11.68;;;8.30;;
30617;SDS011;17384;51.214;9.202;2023-04-25T03:45:28;11.00;;;6.68;;
30617;SDS011;17384;51.214;9.202;2023-04-25T03:47:54;10.25;;;6.65;;
30617;SDS011;17384;51.214;9.202;2023-04-25T03:50:19;15.20;;;7.63;;
30617;SDS011;17384;51.214;9.202;2023-04-25T03:52:45;13.98;;;7.28;;
30617;SDS011;17384;51.214;9.202;2023-04-25T03:55:10;11.45;;;7.25;;
30617;SDS011;17384;51.214;9.202;2023-04-25T03:57:36;11.57;;;7.65;;
30617;SDS011;17384;51.214;9.202;2023-04-25T04:00:01;12.23;;;7.90;;
30617;SDS011;17384;51.214;9.202;2023-04-25T04:02:29;19.48;;;7.50;;
30617;SDS011;17384;51.214;9.202;2023-04-25T04:04:54;11.93;;;7.70;;
30617;SDS011;17384;51.214;9.202;2023-04-25T04:07:21;15.80;;;8.40;;
30617;SDS011;17384;51.214;9.202;2023-04-25T04:09:47;15.20;;;6.43;;
30617;SDS011;17384;51.214;9.202;2023-04-25T04:12:12;15.65;;;7.53;;
30617;SDS011;17384;51.214;9.202;2023-04-25T04:14:38;11.18;;;7.18;;
30617;SDS011;17384;51.214;9.202;2023-04-25T04:17:03;12.63;;;6.72;;
30617;SDS011;17384;51.214;9.202;2023-04-25T04:19:29;14.77;;;8.32;;
30617;SDS011;17384;51.214;9.202;2023-04-25T04:21:54;17.17;;;8.25;;
30617;SDS011;17384;51.214;9.202;2023-04-25T04:24:19;16.45;;;8.35;;
30617;SDS011;17384;51.214;9.202;2023-04-25T04:26:45;14.45;;;7.53;;
30617;SDS011;17384;51.214;9.202;2023-04-25T04:29:11;14.77;;;8.00;;
30617;SDS011;17384;51.214;9.202;2023-04-25T04:31:36;17.02;;;7.85;;
30617;SDS011;17384;51.214;9.202;2023-04-25T04:34:02;13.43;;;7.75;;
30617;SDS011;17384;51.214;9.202;2023-04-25T04:36:30;15.50;;;7.60;;
30617;SDS011;17384;51.214;9.202;2023-04-25T04:38:56;15.75;;;7.38;;
30617;SDS011;17384;51.214;9.202;2023-04-25T04:41:21;15.75;;;9.55;;
30617;SDS011;17384;51.214;9.202;2023-04-25T04:43:47;17.38;;;8.57;;
30617;SDS011;17384;51.214;9.202;2023-04-25T04:46:12;16.20;;;8.60;;
30617;SDS011;17384;51.214;9.202;2023-04-25T04:48:38;12.63;;;7.95;;
30617;SDS011;17384;51.214;9.202;2023-04-25T04:51:05;11.35;;;7.70;;
30617;SDS011;17384;51.214;9.202;2023-04-25T04:53:31;16.90;;;8.10;;
30617;SDS011;17384;51.214;9.202;2023-04-25T04:55:57;13.93;;;7.93;;
30617;SDS011;17384;51.214;9.202;2023-04-25T04:58:23;18.92;;;9.05;;
30617;SDS011;17384;51.214;9.202;2023-04-25T05:00:48;12.30;;;8.25;;
30617;SDS011;17384;51.214;9.202;2023-04-25T05:03:14;15.95;;;9.57;;
30617;SDS011;17384;51.214;9.202;2023-04-25T05:05:41;14.27;;;8.45;;
30617;SDS011;17384;51.214;9.202;2023-04-25T05:08:06;13.48;;;8.48;;
30617;SDS011;17384;51.214;9.202;2023-04-25T05:10:32;22.30;;;9.70;;
30617;SDS011;17384;51.214;9.202;2023-04-25T05:12:58;37.15;;;13.00;;
30617;SDS011;17384;51.214;9.202;2023-04-25T05:15:23;19.20;;;10.02;;
30617;SDS011;17384;51.214;9.202;2023-04-25T05:17:48;19.38;;;9.65;;
30617;SDS011;17384;51.214;9.202;2023-04-25T05:20:14;17.33;;;9.43;;
30617;SDS011;17384;51.214;9.202;2023-04-25T05:22:40;19.92;;;10.07;;
30617;SDS011;17384;51.214;9.202;2023-04-25T05:25:06;21.98;;;10.80;;
30617;SDS011;17384;51.214;9.202;2023-04-25T05:27:33;18.83;;;11.63;;
30617;SDS011;17384;51.214;9.202;2023-04-25T05:29:58;16.63;;;10.10;;
30617;SDS011;17384;51.214;9.202;2023-04-25T05:32:24;19.02;;;9.27;;
30617;SDS011;17384;51.214;9.202;2023-04-25T05:34:50;20.73;;;9.90;;
30617;SDS011;17384;51.214;9.202;2023-04-25T05:37:15;15.55;;;10.00;;
30617;SDS011;17384;51.214;9.202;2023-04-25T05:39:41;13.40;;;7.38;;
30617;SDS011;17384;51.214;9.202;2023-04-25T05:42:06;26.15;;;16.17;;
30617;SDS011;17384;51.214;9.202;2023-04-25T05:44:32;15.00;;;8.95;;
30617;SDS011;17384;51.214;9.202;2023-04-25T05:46:57;11.45;;;7.55;;
30617;SDS011;17384;51.214;9.202;2023-04-25T05:49:23;8.40;;;6.38;;
30617;SDS011;17384;51.214;9.202;2023-04-25T05:51:48;11.43;;;6.13;;
30617;SDS011;17384;51.214;9.202;2023-04-25T05:54:13;8.60;;;5.40;;
30617;SDS011;17384;51.214;9.202;2023-04-25T05:56:44;10.60;;;6.07;;
30617;SDS011;17384;51.214;9.202;2023-04-25T05:59:10;11.02;;;6.68;;
30617;SDS011;17384;51.214;9.202;2023-04-25T06:01:37;11.90;;;6.25;;
30617;SDS011;17384;51.214;9.202;2023-04-25T06:04:02;12.52;;;7.28;;
30617;SDS011;17384;51.214;9.202;2023-04-25T06:06:29;11.60;;;8.25;;
30617;SDS011;17384;51.214;9.202;2023-04-25T06:08:55;8.77;;;5.10;;
30617;SDS011;17384;51.214;9.202;2023-04-25T06:11:20;9.90;;;6.10;;
30617;SDS011;17384;51.214;9.202;2023-04-25T06:13:46;13.50;;;5.82;;
30617;SDS011;17384;51.214;9.202;2023-04-25T06:16:21;12.88;;;7.55;;
30617;SDS011;17384;51.214;9.202;2023-04-25T06:18:46;14.77;;;7.00;;
30617;SDS011;17384;51.214;9.202;2023-04-25T06:24:28;11.73;;;6.03;;
30617;SDS011;17384;51.214;9.202;2023-04-25T06:26:57;14.18;;;5.68;;
30617;SDS011;17384;51.214;9.202;2023-04-25T06:29:22;13.45;;;5.82;;
30617;SDS011;17384;51.214;9.202;2023-04-25T06:31:48;14.82;;;6.25;;
30617;SDS011;17384;51.214;9.202;2023-04-25T06:34:13;24.13;;;9.23;;
30617;SDS011;17384;51.214;9.202;2023-04-25T06:36:38;18.77;;;7.30;;
30617;SDS011;17384;51.214;9.202;2023-04-25T06:39:04;19.55;;;8.20;;
30617;SDS011;17384;51.214;9.202;2023-04-25T06:41:29;20.95;;;6.72;;
30617;SDS011;17384;51.214;9.202;2023-04-25T06:43:55;19.23;;;5.97;;
30617;SDS011;17384;51.214;9.202;2023-04-25T06:46:20;17.52;;;6.13;;
30617;SDS011;17384;51.214;9.202;2023-04-25T06:48:46;22.25;;;6.63;;
30617;SDS011;17384;51.214;9.202;2023-04-25T06:51:11;14.68;;;5.75;;
30617;SDS011;17384;51.214;9.202;2023-04-25T06:53:38;21.10;;;7.05;;
30617;SDS011;17384;51.214;9.202;2023-04-25T06:56:04;21.83;;;6.65;;
30617;SDS011;17384;51.214;9.202;2023-04-25T06:58:30;17.88;;;6.00;;
30617;SDS011;17384;51.214;9.202;2023-04-25T07:00:55;19.33;;;6.07;;
30617;SDS011;17384;51.214;9.202;2023-04-25T07:03:21;20.17;;;6.45;;
30617;SDS011;17384;51.214;9.202;2023-04-25T07:05:46;19.67;;;6.72;;
30617;SDS011;17384;51.214;9.202;2023-04-25T07:08:12;17.45;;;6.53;;
30617;SDS011;17384;51.214;9.202;2023-04-25T07:10:37;16.88;;;6.53;;
30617;SDS011;17384;51.214;9.202;2023-04-25T07:13:03;22.40;;;5.38;;
30617;SDS011;17384;51.214;9.202;2023-04-25T07:15:28;14.23;;;4.72;;
30617;SDS011;17384;51.214;9.202;2023-04-25T07:17:54;26.92;;;5.80;;
30617;SDS011;17384;51.214;9.202;2023-04-25T07:20:19;21.58;;;5.65;;
30617;SDS011;17384;51.214;9.202;2023-04-25T07:22:45;17.77;;;5.60;;
30617;SDS011;17384;51.214;9.202;2023-04-25T07:25:11;33.97;;;8.38;;
30617;SDS011;17384;51.214;9.202;2023-04-25T07:27:39;23.13;;;6.00;;
30617;SDS011;17384;51.214;9.202;2023-04-25T07:30:06;29.27;;;6.40;;
30617;SDS011;17384;51.214;9.202;2023-04-25T07:32:31;26.48;;;5.75;;
30617;SDS011;17384;51.214;9.202;2023-04-25T07:34:57;20.05;;;5.97;;
30617;SDS011;17384;51.214;9.202;2023-04-25T07:37:23;22.15;;;6.05;;
30617;SDS011;17384;51.214;9.202;2023-04-25T07:39:48;18.88;;;5.07;;
30617;SDS011;17384;51.214;9.202;2023-04-25T07:42:13;24.92;;;6.93;;
30617;SDS011;17384;51.214;9.202;2023-04-25T07:44:39;23.63;;;5.53;;
30617;SDS011;17384;51.214;9.202;2023-04-25T07:47:08;24.00;;;5.78;;
30617;SDS011;17384;51.214;9.202;2023-04-25T07:49:37;20.20;;;5.20;;
30617;SDS011;17384;51.214;9.202;2023-04-25T07:52:06;18.65;;;5.15;;
30617;SDS011;17384;51.214;9.202;2023-04-25T07:54:31;17.38;;;5.63;;
30617;SDS011;17384;51.214;9.202;2023-04-25T07:56:57;16.27;;;4.70;;
30617;SDS011;17384;51.214;9.202;2023-04-25T07:59:23;17.08;;;5.22;;
30617;SDS011;17384;51.214;9.202;2023-04-25T08:01:49;21.25;;;5.55;;
30617;SDS011;17384;51.214;9.202;2023-04-25T08:04:15;25.92;;;6.07;;
30617;SDS011;17384;51.214;9.202;2023-04-25T08:06:41;18.98;;;4.85;;
30617;SDS011;17384;51.214;9.202;2023-04-25T08:09:06;9.90;;;4.50;;
30617;SDS011;17384;51.214;9.202;2023-04-25T08:11:33;24.52;;;5.88;;
30617;SDS011;17384;51.214;9.202;2023-04-25T08:13:59;15.27;;;4.88;;
30617;SDS011;17384;51.214;9.202;2023-04-25T08:16:24;25.48;;;5.40;;
30617;SDS011;17384;51.214;9.202;2023-04-25T08:18:50;18.88;;;5.10;;
30617;SDS011;17384;51.214;9.202;2023-04-25T08:21:15;18.85;;;5.60;;
30617;SDS011;17384;51.214;9.202;2023-04-25T08:23:41;22.05;;;5.03;;
30617;SDS011;17384;51.214;9.202;2023-04-25T08:26:06;16.58;;;4.50;;
30617;SDS011;17384;51.214;9.202;2023-04-25T08:28:32;13.13;;;4.85;;
30617;SDS011;17384;51.214;9.202;2023-04-25T08:30:58;18.17;;;5.95;;
30617;SDS011;17384;51.214;9.202;2023-04-25T08:33:23;20.25;;;6.07;;
30617;SDS011;17384;51.214;9.202;2023-04-25T08:35:49;16.95;;;4.78;;
30617;SDS011;17384;51.214;9.202;2023-04-25T08:38:14;28.40;;;4.82;;
30617;SDS011;17384;51.214;9.202;2023-04-25T08:40:40;22.90;;;4.60;;
30617;SDS011;17384;51.214;9.202;2023-04-25T08:43:06;21.40;;;4.97;;
30617;SDS011;17384;51.214;9.202;2023-04-25T08:45:39;28.95;;;5.30;;
30617;SDS011;17384;51.214;9.202;2023-04-25T08:48:11;13.18;;;4.50;;
30617;SDS011;17384;51.214;9.202;2023-04-25T08:50:50;22.38;;;4.82;;
30617;SDS011;17384;51.214;9.202;2023-04-25T08:53:27;22.98;;;5.20;;
30617;SDS011;17384;51.214;9.202;2023-04-25T08:55:54;17.00;;;4.28;;
30617;SDS011;17384;51.214;9.202;2023-04-25T08:58:21;14.23;;;4.18;;
30617;SDS011;17384;51.214;9.202;2023-04-25T09:00:47;15.60;;;4.25;;
30617;SDS011;17384;51.214;9.202;2023-04-25T09:03:14;15.68;;;4.32;;
30617;SDS011;17384;51.214;9.202;2023-04-25T09:05:40;11.32;;;3.75;;
30617;SDS011;17384;51.214;9.202;2023-04-25T09:08:06;21.50;;;3.97;;
30617;SDS011;17384;51.214;9.202;2023-04-25T09:10:32;15.30;;;4.28;;
30617;SDS011;17384;51.214;9.202;2023-04-25T09:13:13;14.35;;;4.22;;
30617;SDS011;17384;51.214;9.202;2023-04-25T09:15:50;15.23;;;3.63;;
30617;SDS011;17384;51.214;9.202;2023-04-25T09:18:24;8.02;;;3.22;;
30617;SDS011;17384;51.214;9.202;2023-04-25T09:20:54;14.18;;;4.22;;
30617;SDS011;17384;51.214;9.202;2023-04-25T09:23:41;11.25;;;3.75;;
30617;SDS011;17384;51.214;9.202;2023-04-25T09:26:10;18.90;;;3.60;;
30617;SDS011;17384;51.214;9.202;2023-04-25T09:28:40;15.25;;;3.90;;
30617;SDS011;17384;51.214;9.202;2023-04-25T09:31:05;13.10;;;4.03;;
30617;SDS011;17384;51.214;9.202;2023-04-25T09:33:31;10.60;;;3.88;;
30617;SDS011;17384;51.214;9.202;2023-04-25T09:36:02;16.10;;;4.22;;
30617;SDS011;17384;51.214;9.202;2023-04-25T09:38:32;12.27;;;4.53;;
30617;SDS011;17384;51.214;9.202;2023-04-25T09:41:08;12.82;;;3.90;;
30617;SDS011;17384;51.214;9.202;2023-04-25T09:43:34;19.02;;;4.03;;
30617;SDS011;17384;51.214;9.202;2023-04-25T09:46:00;13.05;;;3.67;;
30617;SDS011;17384;51.214;9.202;2023-04-25T09:48:27;12.90;;;3.80;;
30617;SDS011;17384;51.214;9.202;2023-04-25T09:51:09;11.73;;;4.05;;
30617;SDS011;17384;51.214;9.202;2023-04-25T09:53:37;11.32;;;3.83;;
30617;SDS011;17384;51.214;9.202;2023-04-25T09:56:05;18.35;;;4.45;;
30617;SDS011;17384;51.214;9.202;2023-04-25T09:58:33;14.77;;;4.38;;
30617;SDS011;17384;51.214;9.202;2023-04-25T10:00:59;16.90;;;3.80;;
30617;SDS011;17384;51.214;9.202;2023-04-25T10:03:29;18.15;;;3.50;;
30617;SDS011;17384;51.214;9.202;2023-04-25T10:05:57;19.50;;;2.67;;
30617;SDS011;17384;51.214;9.202;2023-04-25T10:08:25;8.07;;;3.25;;
30617;SDS011;17384;51.214;9.202;2023-04-25T10:10:57;10.57;;;2.10;;
30617;SDS011;17384;51.214;9.202;2023-04-25T10:13:28;7.78;;;2.53;;
30617;SDS011;17384;51.214;9.202;2023-04-25T10:15:56;7.75;;;2.53;;
30617;SDS011;17384;51.214;9.202;2023-04-25T10:18:23;9.35;;;2.55;;
30617;SDS011;17384;51.214;9.202;2023-04-25T10:20:49;12.55;;;2.67;;
30617;SDS011;17384;51.214;9.202;2023-04-25T10:23:15;9.90;;;2.60;;
30617;SDS011;17384;51.214;9.202;2023-04-25T10:25:42;13.77;;;2.90;;
30617;SDS011;17384;51.214;9.202;2023-04-25T10:28:07;11.75;;;2.75;;
30617;SDS011;17384;51.214;9.202;2023-04-25T10:30:33;13.38;;;3.05;;
30617;SDS011;17384;51.214;9.202;2023-04-25T10:32:58;13.15;;;3.58;;
30617;SDS011;17384;51.214;9.202;2023-04-25T10:35:28;7.72;;;3.35;;
30617;SDS011;17384;51.214;9.202;2023-04-25T10:38:05;11.90;;;3.13;;
30617;SDS011;17384;51.214;9.202;2023-04-25T10:40:34;12.05;;;3.45;;
30617;SDS011;17384;51.214;9.202;2023-04-25T10:46:37;7.97;;;3.35;;
30617;SDS011;17384;51.214;9.202;2023-04-25T10:48:59;16.23;;;2.85;;
30617;SDS011;17384;51.214;9.202;2023-04-25T10:51:30;9.65;;;3.15;;
30617;SDS011;17384;51.214;9.202;2023-04-25T10:56:25;13.82;;;3.00;;
30617;SDS011;17384;51.214;9.202;2023-04-25T10:59:02;18.90;;;3.83;;
30617;SDS011;17384;51.214;9.202;2023-04-25T11:01:41;10.88;;;3.35;;
30617;SDS011;17384;51.214;9.202;2023-04-25T11:04:21;14.50;;;3.80;;
30617;SDS011;17384;51.214;9.202;2023-04-25T11:09:47;12.68;;;2.90;;
30617;SDS011;17384;51.214;9.202;2023-04-25T11:12:14;9.85;;;2.65;;
30617;SDS011;17384;51.214;9.202;2023-04-25T11:14:40;11.52;;;3.00;;
30617;SDS011;17384;51.214;9.202;2023-04-25T11:17:05;13.43;;;3.30;;
30617;SDS011;17384;51.214;9.202;2023-04-25T11:19:31;9.15;;;2.65;;
30617;SDS011;17384;51.214;9.202;2023-04-25T11:21:57;11.18;;;3.42;;
30617;SDS011;17384;51.214;9.202;2023-04-25T11:24:25;10.98;;;2.97;;
30617;SDS011;17384;51.214;9.202;2023-04-25T11:26:54;18.38;;;3.33;;
30617;SDS011;17384;51.214;9.202;2023-04-25T11:29:23;14.52;;;3.58;;
30617;SDS011;17384;51.214;9.202;2023-04-25T11:31:52;10.18;;;3.40;;
30617;SDS011;17384;51.214;9.202;2023-04-25T11:34:19;11.27;;;2.78;;
30617;SDS011;17384;51.214;9.202;2023-04-25T11:36:44;11.90;;;3.05;;
30617;SDS011;17384;51.214;9.202;2023-04-25T11:39:11;10.43;;;3.58;;
30617;SDS011;17384;51.214;9.202;2023-04-25T11:41:37;13.68;;;3.05;;
30617;SDS011;17384;51.214;9.202;2023-04-25T11:44:03;8.13;;;2.85;;
30617;SDS011;17384;51.214;9.202;2023-04-25T11:46:29;10.57;;;2.40;;
30617;SDS011;17384;51.214;9.202;2023-04-25T11:48:55;11.73;;;2.58;;
30617;SDS011;17384;51.214;9.202;2023-04-25T11:51:21;16.98;;;3.00;;
30617;SDS011;17384;51.214;9.202;2023-04-25T11:53:46;8.07;;;2.97;;
30617;SDS011;17384;51.214;9.202;2023-04-25T11:56:12;14.70;;;3.35;;
30617;SDS011;17384;51.214;9.202;2023-04-25T11:58:57;12.20;;;4.00;;
30617;SDS011;17384;51.214;9.202;2023-04-25T12:01:37;12.35;;;2.58;;
30617;SDS011;17384;51.214;9.202;2023-04-25T12:04:10;8.63;;;2.65;;
30617;SDS011;17384;51.214;9.202;2023-04-25T12:06:40;6.32;;;2.47;;
30617;SDS011;17384;51.214;9.202;2023-04-25T12:09:07;9.27;;;2.50;;
30617;SDS011;17384;51.214;9.202;2023-04-25T12:11:42;6.60;;;2.25;;
30617;SDS011;17384;51.214;9.202;2023-04-25T12:14:25;13.02;;;2.55;;
30617;SDS011;17384;51.214;9.202;2023-04-25T12:16:53;9.63;;;2.60;;
30617;SDS011;17384;51.214;9.202;2023-04-25T12:19:22;4.93;;;2.30;;
30617;SDS011;17384;51.214;9.202;2023-04-25T12:21:48;6.90;;;2.75;;
30617;SDS011;17384;51.214;9.202;2023-04-25T12:26:48;12.65;;;2.50;;
30617;SDS011;17384;51.214;9.202;2023-04-25T12:29:18;9.48;;;2.15;;
30617;SDS011;17384;51.214;9.202;2023-04-25T12:31:49;6.30;;;2.20;;
30617;SDS011;17384;51.214;9.202;2023-04-25T12:34:19;8.13;;;2.40;;
30617;SDS011;17384;51.214;9.202;2023-04-25T12:36:45;15.77;;;2.60;;
30617;SDS011;17384;51.214;9.202;2023-04-25T12:39:14;10.35;;;3.13;;
30617;SDS011;17384;51.214;9.202;2023-04-25T12:41:41;5.95;;;1.85;;
30617;SDS011;17384;51.214;9.202;2023-04-25T12:44:06;9.82;;;2.38;;
30617;SDS011;17384;51.214;9.202;2023-04-25T12:46:32;6.05;;;1.75;;
30617;SDS011;17384;51.214;9.202;2023-04-25T12:48:57;9.98;;;2.67;;
30617;SDS011;17384;51.214;9.202;2023-04-25T12:51:23;6.72;;;1.95;;
30617;SDS011;17384;51.214;9.202;2023-04-25T12:53:50;5.25;;;3.03;;
30617;SDS011;17384;51.214;9.202;2023-04-25T12:56:16;7.80;;;2.40;;
30617;SDS011;17384;51.214;9.202;2023-04-25T12:58:41;8.43;;;2.95;;
30617;SDS011;17384;51.214;9.202;2023-04-25T13:01:09;14.88;;;3.33;;
30617;SDS011;17384;51.214;9.202;2023-04-25T13:03:34;11.15;;;3.10;;
30617;SDS011;17384;51.214;9.202;2023-04-25T13:06:00;12.48;;;3.05;;
30617;SDS011;17384;51.214;9.202;2023-04-25T13:08:26;11.65;;;2.85;;
30617;SDS011;17384;51.214;9.202;2023-04-25T13:10:51;6.97;;;2.45;;
30617;SDS011;17384;51.214;9.202;2023-04-25T13:13:17;8.68;;;2.72;;
30617;SDS011;17384;51.214;9.202;2023-04-25T13:15:42;7.32;;;2.50;;
30617;SDS011;17384;51.214;9.202;2023-04-25T13:18:08;8.63;;;2.15;;
30617;SDS011;17384;51.214;9.202;2023-04-25T13:20:33;6.65;;;2.50;;
30617;SDS011;17384;51.214;9.202;2023-04-25T13:22:59;11.60;;;2.70;;
30617;SDS011;17384;51.214;9.202;2023-04-25T13:25:24;7.53;;;2.72;;
30617;SDS011;17384;51.214;9.202;2023-04-25T13:27:50;9.15;;;2.97;;
30617;SDS011;17384;51.214;9.202;2023-04-25T13:30:16;8.98;;;2.60;;
30617;SDS011;17384;51.214;9.202;2023-04-25T13:32:41;15.20;;;2.65;;
30617;SDS011;17384;51.214;9.202;2023-04-25T13:35:08;6.22;;;2.33;;
30617;SDS011;17384;51.214;9.202;2023-04-25T13:37:35;8.93;;;2.65;;
30617;SDS011;17384;51.214;9.202;2023-04-25T13:40:01;5.55;;;1.90;;
30617;SDS011;17384;51.214;9.202;2023-04-25T13:42:29;13.98;;;2.75;;
30617;SDS011;17384;51.214;9.202;2023-04-25T13:44:58;15.13;;;2.75;;
30617;SDS011;17384;51.214;9.202;2023-04-25T13:47:23;9.25;;;2.35;;
30617;SDS011;17384;51.214;9.202;2023-04-25T13:49:50;6.60;;;2.22;;
30617;SDS011;17384;51.214;9.202;2023-04-25T13:52:16;9.95;;;2.42;;
30617;SDS011;17384;51.214;9.202;2023-04-25T13:54:41;7.47;;;2.20;;
30617;SDS011;17384;51.214;9.202;2023-04-25T13:57:06;8.15;;;2.58;;
30617;SDS011;17384;51.214;9.202;2023-04-25T13:59:32;8.75;;;1.95;;
30617;SDS011;17384;51.214;9.202;2023-04-25T14:01:58;9.43;;;3.08;;
30617;SDS011;17384;51.214;9.202;2023-04-25T14:04:23;5.47;;;2.53;;
30617;SDS011;17384;51.214;9.202;2023-04-25T14:06:50;12.52;;;2.80;;
30617;SDS011;17384;51.214;9.202;2023-04-25T14:09:16;6.82;;;2.40;;
30617;SDS011;17384;51.214;9.202;2023-04-25T14:11:42;8.45;;;2.50;;
30617;SDS011;17384;51.214;9.202;2023-04-25T14:14:07;8.77;;;2.50;;
30617;SDS011;17384;51.214;9.202;2023-04-25T14:16:33;12.02;;;3.13;;
30617;SDS011;17384;51.214;9.202;2023-04-25T14:18:59;6.28;;;2.10;;
30617;SDS011;17384;51.214;9.202;2023-04-25T14:21:31;6.07;;;2.42;;
30617;SDS011;17384;51.214;9.202;2023-04-25T14:23:57;10.07;;;2.95;;
30617;SDS011;17384;51.214;9.202;2023-04-25T14:26:23;6.78;;;2.38;;
30617;SDS011;17384;51.214;9.202;2023-04-25T14:28:51;14.60;;;3.20;;
30617;SDS011;17384;51.214;9.202;2023-04-25T14:31:17;5.55;;;2.72;;
30617;SDS011;17384;51.214;9.202;2023-04-25T14:33:43;9.90;;;2.42;;
30617;SDS011;17384;51.214;9.202;2023-04-25T14:36:09;13.68;;;2.85;;
30617;SDS011;17384;51.214;9.202;2023-04-25T14:38:36;7.63;;;2.58;;
30617;SDS011;17384;51.214;9.202;2023-04-25T14:41:04;7.03;;;2.42;;
30617;SDS011;17384;51.214;9.202;2023-04-25T14:43:30;8.07;;;2.60;;
30617;SDS011;17384;51.214;9.202;2023-04-25T14:45:56;5.47;;;2.63;;
30617;SDS011;17384;51.214;9.202;2023-04-25T14:48:22;9.30;;;2.95;;
30617;SDS011;17384;51.214;9.202;2023-04-25T14:50:48;7.82;;;2.58;;
30617;SDS011;17384;51.214;9.202;2023-04-25T14:53:14;10.05;;;2.15;;